createdAt,value
2018-06-01T00:01:36.336Z,73809.34
2018-06-01T00:04:06.014Z,73816.42
2018-06-01T00:06:35.535Z,73814.39
2018-06-01T00:09:06.460Z,73791.13
2018-06-01T00:11:36.003Z,73803.27
2018-06-01T00:14:05.902Z,73819.45
2018-06-01T00:16:35.798Z,73798.20
2018-06-01T00:19:05.547Z,73780.00
2018-06-01T00:21:35.427Z,73759.77
2018-06-01T00:24:05.464Z,73776.96
2018-06-01T00:26:35.148Z,73781.02
2018-06-01T00:29:04.518Z,73782.02
2018-06-01T00:31:34.283Z,73772.92
2018-06-01T00:34:03.795Z,73783.03
2018-06-01T00:36:33.657Z,73789.10
2018-06-01T00:39:03.282Z,73817.43
2018-06-01T00:41:32.788Z,73845.76
2018-06-01T00:44:02.379Z,73861.95
2018-06-01T00:46:32.261Z,73918.60
2018-06-01T00:49:01.911Z,73987.40
2018-06-01T00:51:31.552Z,73974.25
2018-06-01T00:54:01.489Z,73947.94
2018-06-01T00:56:30.982Z,73890.27
2018-06-01T00:59:00.752Z,73876.11
2018-06-01T01:01:32.490Z,73853.85
2018-06-01T01:04:01.904Z,73867.00
2018-06-01T01:06:31.375Z,73890.27
2018-06-01T01:09:01.315Z,73903.42
2018-06-01T01:11:33.269Z,73936.81
2018-06-01T01:14:03.176Z,73878.13
2018-06-01T01:16:33.204Z,73903.42
2018-06-01T01:19:02.946Z,73914.55
2018-06-01T01:21:33.391Z,73905.45
2018-06-01T01:24:03.541Z,73929.73
2018-06-01T01:26:33.047Z,73945.92
2018-06-01T01:29:02.712Z,74064.30
2018-06-01T01:31:33.020Z,74080.48
2018-06-01T01:34:07.024Z,74065.30
2018-06-01T01:36:36.569Z,74142.20
2018-06-01T01:39:07.032Z,74172.55
2018-06-01T01:41:36.629Z,74192.79
2018-06-01T01:44:06.143Z,74167.49
2018-06-01T01:46:35.812Z,74096.67
2018-06-01T01:49:06.139Z,74123.98
2018-06-01T01:51:36.593Z,74090.59
2018-06-01T01:54:06.182Z,74052.16
2018-06-01T01:56:35.742Z,74059.23
2018-06-01T01:59:07.657Z,74119.94
2018-06-01T02:01:43.146Z,74104.77
2018-06-01T02:04:12.976Z,74095.66
2018-06-01T02:06:42.605Z,74056.20
2018-06-01T02:09:11.929Z,74071.38
2018-06-01T02:11:41.529Z,74070.36
2018-06-01T02:14:11.697Z,74113.87
2018-06-01T02:16:41.357Z,74061.25
2018-06-01T02:19:11.203Z,74042.03
2018-06-01T02:21:40.913Z,74054.17
2018-06-01T02:24:10.688Z,74033.94
2018-06-01T02:26:40.197Z,74036.97
2018-06-01T02:29:09.883Z,74031.91
2018-06-01T02:31:39.645Z,74022.81
2018-06-01T02:34:09.135Z,74032.93
2018-06-01T02:36:38.850Z,74010.67
2018-06-01T02:39:08.836Z,74000.55
2018-06-01T02:41:38.478Z,73998.53
2018-06-01T02:44:08.120Z,74027.87
2018-06-01T02:46:37.890Z,74031.91
2018-06-01T02:49:07.357Z,74035.97
2018-06-01T02:51:37.297Z,74076.44
2018-06-01T02:54:06.807Z,74109.83
2018-06-01T02:56:36.502Z,74041.02
2018-06-01T02:59:06.437Z,73993.47
2018-06-01T03:01:35.982Z,73988.41
2018-06-01T03:04:05.715Z,73983.35
2018-06-01T03:06:44.222Z,74010.67
2018-06-01T03:09:13.857Z,74017.75
2018-06-01T03:11:43.524Z,74006.63
2018-06-01T03:14:13.762Z,74021.80
2018-06-01T03:16:43.193Z,74036.97
2018-06-01T03:19:13.482Z,74016.73
2018-06-01T03:21:43.033Z,74076.44
2018-06-01T03:24:13.037Z,74100.72
2018-06-01T03:26:42.650Z,74156.36
2018-06-01T03:29:12.694Z,74093.63
2018-06-01T03:31:42.299Z,74147.26
2018-06-01T03:34:11.954Z,74158.39
2018-06-01T03:36:41.798Z,74123.98
2018-06-01T03:39:11.438Z,74123.98
2018-06-01T03:41:40.903Z,74149.28
2018-06-01T03:44:10.630Z,74185.70
2018-06-01T03:46:40.393Z,74178.63
2018-06-01T03:49:10.426Z,74193.80
2018-06-01T03:51:40.157Z,74146.25
2018-06-01T03:54:09.928Z,74115.89
2018-06-01T03:56:39.645Z,74107.80
2018-06-01T03:59:09.498Z,74191.78
2018-06-01T04:01:40.275Z,74207.97
2018-06-01T04:04:09.947Z,74191.78
2018-06-01T04:06:40.201Z,74176.59
2018-06-01T04:09:10.759Z,74199.88
2018-06-01T04:11:40.684Z,74205.94
2018-06-01T04:14:10.505Z,74223.14
2018-06-01T04:16:40.536Z,74211.00
2018-06-01T04:19:09.998Z,74186.72
2018-06-01T04:21:39.682Z,74196.84
2018-06-01T04:24:09.616Z,74179.64
2018-06-01T04:26:39.704Z,74156.36
2018-06-01T04:29:09.444Z,74206.95
2018-06-01T04:31:39.618Z,74162.44
2018-06-01T04:34:09.885Z,74129.05
2018-06-01T04:36:39.486Z,74107.80
2018-06-01T04:39:09.562Z,74089.59
2018-06-01T04:41:39.166Z,74036.97
2018-06-01T04:44:08.797Z,74001.56
2018-06-01T04:46:38.901Z,73994.48
2018-06-01T04:49:09.068Z,73980.31
2018-06-01T04:51:38.709Z,73969.19
2018-06-01T04:54:08.580Z,73963.12
2018-06-01T04:56:38.141Z,73964.13
2018-06-01T04:59:07.776Z,73962.11
2018-06-01T05:01:37.465Z,73948.95
2018-06-01T05:04:06.985Z,73970.20
2018-06-01T05:06:36.776Z,73951.98
2018-06-01T05:09:08.059Z,73930.74
2018-06-01T05:11:38.048Z,73944.91
2018-06-01T05:14:07.542Z,73924.67
2018-06-01T05:16:37.468Z,73895.33
2018-06-01T05:19:06.929Z,73932.77
2018-06-01T05:21:36.581Z,73916.58
2018-06-01T05:24:06.554Z,73874.09
2018-06-01T05:26:36.249Z,73887.23
2018-06-01T05:29:05.929Z,73884.20
2018-06-01T05:31:35.546Z,73864.98
2018-06-01T05:34:05.137Z,73860.94
2018-06-01T05:36:34.794Z,73870.04
2018-06-01T05:39:04.816Z,73886.22
2018-06-01T05:41:34.181Z,73874.09
2018-06-01T05:44:03.513Z,73850.81
2018-06-01T05:46:34.023Z,73868.02
2018-06-01T05:49:04.899Z,73888.25
2018-06-01T05:51:34.815Z,73854.86
2018-06-01T05:54:04.580Z,73825.52
2018-06-01T05:56:34.078Z,73829.57
2018-06-01T05:59:03.589Z,73820.47
2018-06-01T06:01:33.722Z,73835.64
2018-06-01T06:04:03.401Z,73830.58
2018-06-01T06:06:33.039Z,73828.56
2018-06-01T06:09:02.525Z,73856.89
2018-06-01T06:11:32.002Z,73812.38
2018-06-01T06:14:01.341Z,73821.48
2018-06-01T06:16:31.218Z,73818.44
2018-06-01T06:19:00.675Z,73810.34
2018-06-01T06:21:30.372Z,73838.67
2018-06-01T06:24:00.090Z,73836.66
2018-06-01T06:26:29.941Z,73828.56
2018-06-01T06:28:59.534Z,73785.05
2018-06-01T06:31:29.698Z,73850.81
2018-06-01T06:33:59.350Z,73797.20
2018-06-01T06:36:28.636Z,73786.06
2018-06-01T06:38:57.985Z,73802.25
2018-06-01T06:41:27.544Z,73800.23
2018-06-01T06:43:57.133Z,73752.69
2018-06-01T06:46:26.642Z,73747.63
2018-06-01T06:48:56.570Z,73768.87
2018-06-01T06:51:26.457Z,73736.50
2018-06-01T06:53:56.202Z,73753.70
2018-06-01T06:56:25.509Z,73714.23
2018-06-01T06:58:55.090Z,73744.59
2018-06-01T07:01:24.773Z,73695.02
2018-06-01T07:03:54.227Z,73688.95
2018-06-01T07:06:24.058Z,73712.22
2018-06-01T07:08:53.825Z,73643.42
2018-06-01T07:11:23.980Z,73648.48
2018-06-01T07:13:54.116Z,73647.47
2018-06-01T07:16:23.689Z,73626.22
2018-06-01T07:18:53.369Z,73639.38
2018-06-01T07:21:22.783Z,73642.41
2018-06-01T07:23:52.297Z,73642.41
2018-06-01T07:26:22.177Z,73644.44
2018-06-01T07:28:51.709Z,73646.45
2018-06-01T07:31:21.154Z,73633.30
2018-06-01T07:33:51.270Z,73665.68
2018-06-01T07:36:20.616Z,73620.16
2018-06-01T07:38:50.458Z,73623.19
2018-06-01T07:41:20.463Z,73601.95
2018-06-01T07:43:50.276Z,73542.27
2018-06-01T07:46:19.591Z,73532.14
2018-06-01T07:48:49.725Z,73517.98
2018-06-01T07:51:19.295Z,73483.59
2018-06-01T07:53:49.215Z,73445.15
2018-06-01T07:56:19.122Z,73405.70
2018-06-01T07:58:48.745Z,73376.36
2018-06-01T08:01:18.026Z,73341.97
2018-06-01T08:03:48.228Z,73321.73
2018-06-01T08:06:17.798Z,73274.19
2018-06-01T08:08:47.368Z,73230.70
2018-06-01T08:11:17.081Z,73272.17
2018-06-01T08:13:46.723Z,73317.69
2018-06-01T08:16:16.586Z,73365.23
2018-06-01T08:18:47.008Z,73427.95
2018-06-01T08:21:16.547Z,73465.38
2018-06-01T08:23:45.850Z,73451.22
2018-06-01T08:26:15.466Z,73473.47
2018-06-01T08:28:45.008Z,73464.37
2018-06-01T08:31:14.329Z,73445.15
2018-06-01T08:33:44.438Z,73499.77
2018-06-01T08:36:13.754Z,73498.77
2018-06-01T08:38:43.077Z,73523.04
2018-06-01T08:41:12.887Z,73522.03
2018-06-01T08:43:42.809Z,73491.68
2018-06-01T08:46:12.179Z,73507.86
2018-06-01T08:48:42.038Z,73512.92
2018-06-01T08:51:11.357Z,73505.84
2018-06-01T08:53:40.722Z,73495.73
2018-06-01T08:56:10.735Z,73446.16
2018-06-01T08:58:40.225Z,73405.70
2018-06-01T09:01:09.566Z,73365.23
2018-06-01T09:03:39.325Z,73389.51
2018-06-01T09:06:08.597Z,73376.36
2018-06-01T09:08:38.276Z,73368.27
2018-06-01T09:11:07.634Z,73354.11
2018-06-01T09:13:37.037Z,73371.30
2018-06-01T09:16:06.406Z,73342.98
2018-06-01T09:18:36.702Z,73354.11
2018-06-01T09:21:06.161Z,73343.98
2018-06-01T09:23:35.619Z,73282.28
2018-06-01T09:26:05.206Z,73233.73
2018-06-01T09:28:35.184Z,73152.81
2018-06-01T09:31:04.534Z,73176.08
2018-06-01T09:33:33.978Z,73148.77
2018-06-01T09:36:03.839Z,73106.28
2018-06-01T09:38:33.763Z,73095.16
2018-06-01T09:41:03.736Z,73052.67
2018-06-01T09:43:33.090Z,72982.88
2018-06-01T09:46:02.449Z,72969.73
2018-06-01T09:48:32.389Z,73013.23
2018-06-01T09:51:01.818Z,72963.66
2018-06-01T09:53:31.409Z,73004.13
2018-06-01T09:56:00.714Z,72982.88
2018-06-01T09:58:30.722Z,72922.20
2018-06-01T10:01:00.763Z,73017.27
2018-06-01T10:03:30.065Z,73088.08
2018-06-01T10:05:59.938Z,73162.92
2018-06-01T10:08:29.246Z,73137.64
2018-06-01T10:10:58.770Z,73046.61
2018-06-01T10:13:28.667Z,72948.49
2018-06-01T10:15:58.437Z,73020.31
2018-06-01T10:18:27.745Z,73093.13
2018-06-01T10:20:57.200Z,73314.66
2018-06-01T10:23:26.657Z,73024.35
2018-06-01T10:25:56.238Z,73110.33
2018-06-01T10:28:25.989Z,73152.81
2018-06-01T10:30:55.523Z,73063.80
2018-06-01T10:33:25.189Z,73346.02
2018-06-01T10:35:54.580Z,73129.55
2018-06-01T10:38:24.179Z,73092.13
2018-06-01T10:40:54.338Z,73103.25
2018-06-01T10:43:23.659Z,73067.84
2018-06-01T10:45:53.362Z,73194.28
2018-06-01T10:48:23.242Z,73190.23
2018-06-01T10:50:53.220Z,73185.18
2018-06-01T10:53:22.816Z,73192.27
2018-06-01T10:55:52.597Z,73211.48
2018-06-01T10:58:21.907Z,73132.58
2018-06-01T11:00:51.216Z,73193.27
2018-06-01T11:03:20.814Z,73162.92
2018-06-01T11:05:50.484Z,73269.14
2018-06-01T11:08:19.858Z,73227.66
2018-06-01T11:10:49.641Z,73173.05
2018-06-01T11:13:19.029Z,73243.84
2018-06-01T11:15:48.802Z,73132.58
2018-06-01T11:18:18.911Z,73070.88
2018-06-01T11:20:48.287Z,73027.39
2018-06-01T11:23:18.171Z,73042.56
2018-06-01T11:25:48.021Z,73062.79
2018-06-01T11:28:17.365Z,72961.64
2018-06-01T11:30:46.843Z,72932.31
2018-06-01T11:33:16.843Z,72895.90
2018-06-01T11:35:46.454Z,73004.13
2018-06-01T11:38:16.045Z,73108.30
2018-06-01T11:40:45.971Z,73130.56
2018-06-01T11:43:15.362Z,73119.43
2018-06-01T11:45:44.773Z,73102.23
2018-06-01T11:48:14.482Z,73059.75
2018-06-01T11:50:43.797Z,73050.66
2018-06-01T11:53:13.142Z,73139.66
2018-06-01T11:55:42.834Z,73115.39
2018-06-01T11:58:12.175Z,73173.05
2018-06-01T12:00:41.545Z,73264.08
2018-06-01T12:03:10.959Z,73277.23
2018-06-01T12:05:40.357Z,73204.40
2018-06-01T12:08:09.781Z,73147.75
2018-06-01T12:10:39.116Z,73170.00
2018-06-01T12:13:08.495Z,73064.81
2018-06-01T12:15:37.904Z,73042.56
2018-06-01T12:18:07.391Z,73138.65
2018-06-01T12:20:37.197Z,73110.33
2018-06-01T12:23:06.574Z,73151.80
2018-06-01T12:25:36.071Z,73341.97
2018-06-01T12:28:05.458Z,73230.70
2018-06-01T12:30:34.825Z,73205.41
2018-06-01T12:33:04.198Z,73196.30
2018-06-01T12:35:33.917Z,73181.13
2018-06-01T12:38:03.278Z,73122.47
2018-06-01T12:40:32.659Z,73072.91
2018-06-01T12:43:02.269Z,73061.78
2018-06-01T12:45:31.809Z,73129.55
2018-06-01T12:48:01.294Z,73116.40
2018-06-01T12:50:31.105Z,73054.70
2018-06-01T12:53:00.711Z,73093.13
2018-06-01T12:55:30.496Z,73152.81
2018-06-01T12:58:00.120Z,73187.20
2018-06-01T13:00:30.023Z,73098.19
2018-06-01T13:02:59.573Z,73125.50
2018-06-01T13:05:29.073Z,73034.47
2018-06-01T13:07:58.496Z,73023.34
2018-06-01T13:10:29.041Z,73052.67
2018-06-01T13:12:58.895Z,73013.23
2018-06-01T13:15:28.841Z,73012.22
2018-06-01T13:17:58.237Z,73075.94
2018-06-01T13:20:27.697Z,73027.39
2018-06-01T13:22:57.177Z,73031.44
2018-06-01T13:25:27.229Z,73092.13
2018-06-01T13:27:56.834Z,73064.81
2018-06-01T13:30:26.594Z,73073.91
2018-06-01T13:32:56.400Z,73069.87
2018-06-01T13:35:25.913Z,73040.53
2018-06-01T13:37:55.695Z,73078.97
2018-06-01T13:40:25.771Z,73071.89
2018-06-01T13:42:55.419Z,73100.22
2018-06-01T13:45:25.041Z,73129.55
2018-06-01T13:47:55.055Z,73179.11
2018-06-01T13:50:25.616Z,73146.74
2018-06-01T13:52:55.286Z,73130.56
2018-06-01T13:55:25.430Z,73102.23
2018-06-01T13:57:54.821Z,73077.96
2018-06-01T14:00:24.194Z,73108.30
2018-06-01T14:02:55.677Z,73060.77
2018-06-01T14:05:26.363Z,73083.02
2018-06-01T14:07:55.915Z,73072.91
2018-06-01T14:10:26.188Z,73084.03
2018-06-01T14:12:55.572Z,73100.22
2018-06-01T14:15:25.018Z,73067.84
2018-06-01T14:17:54.786Z,73026.38
2018-06-01T14:20:24.278Z,73059.75
2018-06-01T14:22:53.733Z,73015.25
2018-06-01T14:25:23.406Z,73056.72
2018-06-01T14:27:52.948Z,73049.64
2018-06-01T14:30:22.298Z,73039.52
2018-06-01T14:32:52.202Z,73058.74
2018-06-01T14:35:21.619Z,73023.34
2018-06-01T14:37:50.939Z,73041.55
2018-06-01T14:40:20.850Z,73116.40
2018-06-01T14:42:50.375Z,73062.79
2018-06-01T14:45:19.730Z,73035.48
2018-06-01T14:47:49.966Z,73009.19
2018-06-01T14:50:19.962Z,73031.44
2018-06-01T14:52:49.361Z,73065.83
2018-06-01T14:55:18.998Z,73061.78
2018-06-01T14:57:48.393Z,73106.28
2018-06-01T15:00:17.741Z,73048.63
2018-06-01T15:02:47.365Z,73073.91
2018-06-01T15:07:50.291Z,73073.91
2018-06-01T15:10:19.595Z,73031.44
2018-06-01T15:12:49.067Z,73049.64
2018-06-01T15:15:18.741Z,73087.06
2018-06-01T15:17:48.118Z,73090.09
2018-06-01T15:20:17.490Z,73097.18
2018-06-01T15:22:47.264Z,73157.87
2018-06-01T15:25:17.670Z,73142.70
2018-06-01T15:27:47.955Z,73122.47
2018-06-01T15:30:17.996Z,73157.87
2018-06-01T15:32:47.938Z,73131.57
2018-06-01T15:35:17.525Z,73148.77
2018-06-01T15:37:47.271Z,73078.97
2018-06-01T15:40:17.061Z,73063.80
2018-06-01T15:42:46.389Z,73025.36
2018-06-01T15:45:16.070Z,73068.86
2018-06-01T15:47:45.470Z,73085.05
2018-06-01T15:50:14.944Z,73089.09
2018-06-01T15:52:44.922Z,73089.09
2018-06-01T15:55:14.635Z,73199.34
2018-06-01T15:57:44.467Z,73262.05
2018-06-01T16:00:13.861Z,73279.25
2018-06-01T16:02:43.342Z,73200.35
2018-06-01T16:05:12.718Z,73179.11
2018-06-01T16:07:42.973Z,73204.40
2018-06-01T16:10:12.591Z,73131.57
2018-06-01T16:12:42.184Z,73153.83
2018-06-01T16:15:11.836Z,73192.27
2018-06-01T16:17:41.417Z,73204.40
2018-06-01T16:20:11.126Z,73276.22
2018-06-01T16:22:41.700Z,73269.14
2018-06-01T16:25:11.284Z,73309.59
2018-06-01T16:27:41.088Z,73249.92
2018-06-01T16:30:11.366Z,73280.27
2018-06-01T16:32:41.005Z,73279.25
2018-06-01T16:35:10.372Z,73278.23
2018-06-01T16:37:40.221Z,73228.67
2018-06-01T16:40:09.991Z,73217.55
2018-06-01T16:42:39.667Z,73222.61
2018-06-01T16:45:09.147Z,73228.67
2018-06-01T16:47:38.742Z,73207.44
2018-06-01T16:50:08.718Z,73196.30
2018-06-01T16:52:38.509Z,73190.23
2018-06-01T16:55:08.093Z,73261.05
2018-06-01T16:57:37.749Z,73211.48
2018-06-01T17:00:07.207Z,73254.97
2018-06-01T17:02:36.867Z,73232.72
2018-06-01T17:05:06.511Z,73223.62
2018-06-01T17:07:35.867Z,73231.71
2018-06-01T17:10:10.832Z,73261.05
2018-06-01T17:12:40.810Z,73247.89
2018-06-01T17:15:10.544Z,73232.72
2018-06-01T17:17:39.914Z,73297.45
2018-06-01T17:20:09.694Z,73281.27
2018-06-01T17:22:39.154Z,73341.97
2018-06-01T17:25:08.746Z,73315.66
2018-06-01T17:27:38.447Z,73355.11
2018-06-01T17:30:07.922Z,73298.47
2018-06-01T17:32:37.305Z,73293.41
2018-06-01T17:35:07.370Z,73283.30
2018-06-01T17:37:41.293Z,73313.64
2018-06-01T17:40:11.614Z,73347.02
2018-06-01T17:42:42.715Z,73324.77
2018-06-01T17:45:14.258Z,73345.00
2018-06-01T17:47:46.201Z,73360.17
2018-06-01T17:50:17.760Z,73363.20
2018-06-01T17:52:47.971Z,73370.29
2018-06-01T17:55:17.732Z,73369.28
2018-06-01T17:57:47.655Z,73387.48
2018-06-01T18:00:17.560Z,73466.39
2018-06-01T18:02:47.516Z,73413.79
2018-06-01T18:05:17.240Z,73426.94
2018-06-01T18:07:46.754Z,73452.23
2018-06-01T18:10:18.604Z,73455.27
2018-06-01T18:12:48.145Z,73487.63
2018-06-01T18:15:17.633Z,73435.03
2018-06-01T18:17:47.523Z,73437.05
2018-06-01T18:20:16.922Z,73457.28
2018-06-01T18:22:46.384Z,73442.11
2018-06-01T18:25:16.547Z,73447.17
2018-06-01T18:27:46.153Z,73506.85
2018-06-01T18:30:15.612Z,73488.64
2018-06-01T18:32:45.375Z,73505.84
2018-06-01T18:35:14.910Z,73486.63
2018-06-01T18:37:44.423Z,73507.86
2018-06-01T18:40:14.139Z,73551.36
2018-06-01T18:42:43.567Z,73547.31
2018-06-01T18:45:13.156Z,73553.39
2018-06-01T18:47:42.547Z,73563.50
2018-06-01T18:50:11.998Z,73568.56
2018-06-01T18:52:41.401Z,73627.23
2018-06-01T18:55:11.159Z,73612.06
2018-06-01T18:57:40.755Z,73640.39
2018-06-01T19:00:10.990Z,73658.59
2018-06-01T19:02:40.444Z,73622.18
2018-06-01T19:05:09.903Z,73637.36
2018-06-01T19:07:39.238Z,73652.53
2018-06-01T19:10:08.804Z,73632.30
2018-06-01T19:12:38.207Z,73660.63
2018-06-01T19:15:07.646Z,73651.52
2018-06-01T19:17:37.496Z,73662.64
2018-06-01T19:20:07.969Z,73669.73
2018-06-01T19:22:37.731Z,73673.77
2018-06-01T19:25:07.106Z,73684.91
2018-06-01T19:27:36.634Z,73667.70
2018-06-01T19:30:06.104Z,73689.95
2018-06-01T19:32:36.357Z,73703.11
2018-06-01T19:35:06.018Z,73735.48
2018-06-01T19:37:35.520Z,73747.63
2018-06-01T19:40:05.640Z,73773.92
2018-06-01T19:42:35.304Z,73832.61
2018-06-01T19:45:05.058Z,73797.20
2018-06-01T19:47:34.551Z,73761.79
2018-06-01T19:50:04.043Z,73791.13
2018-06-01T19:52:33.529Z,73824.52
2018-06-01T19:55:03.247Z,73835.64
2018-06-01T19:57:32.690Z,73791.13
2018-06-01T20:00:02.572Z,73768.87
2018-06-01T20:02:32.000Z,73782.02
2018-06-01T20:05:01.426Z,73793.15
2018-06-01T20:07:30.841Z,73801.24
2018-06-01T20:10:01.957Z,73832.61
2018-06-01T20:12:31.421Z,73822.48
2018-06-01T20:15:01.378Z,73825.52
2018-06-01T20:17:30.777Z,73841.71
2018-06-01T20:20:00.454Z,73835.64
2018-06-01T20:22:30.228Z,73845.76
2018-06-01T20:24:59.725Z,73832.61
2018-06-01T20:27:29.302Z,73838.67
2018-06-01T20:29:59.229Z,73852.84
2018-06-01T20:32:29.467Z,73853.85
2018-06-01T20:34:58.827Z,73872.06
2018-06-01T20:37:28.770Z,73887.23
2018-06-01T20:39:58.232Z,73859.92
2018-06-01T20:42:28.023Z,73879.14
2018-06-01T20:44:57.846Z,73915.56
2018-06-01T20:47:27.335Z,73919.61
2018-06-01T20:49:56.847Z,73925.68
2018-06-01T20:52:26.936Z,73910.51
2018-06-01T20:54:56.753Z,73906.45
2018-06-01T21:00:00.040Z,73918.60
2018-06-01T21:02:29.447Z,73930.74
2018-06-01T21:04:58.893Z,73938.84
2018-06-01T21:07:29.060Z,73933.78
2018-06-01T21:09:58.672Z,73957.05
2018-06-01T21:12:28.509Z,73968.17
2018-06-01T21:14:58.194Z,73988.41
2018-06-01T21:17:27.626Z,73989.42
2018-06-01T21:19:57.006Z,73991.45
2018-06-01T21:22:27.189Z,73960.08
2018-06-01T21:24:56.901Z,73976.27
2018-06-01T21:27:26.641Z,73980.31
2018-06-01T21:29:56.707Z,73953.00
2018-06-01T21:32:26.166Z,73985.38
2018-06-01T21:34:55.975Z,73993.47
2018-06-01T21:37:25.838Z,74006.63
2018-06-01T21:39:55.742Z,73999.54
2018-06-01T21:42:25.388Z,74001.56
2018-06-01T21:44:55.526Z,74019.77
2018-06-01T21:47:25.151Z,74022.81
2018-06-01T21:49:54.527Z,74052.16
2018-06-01T21:52:24.405Z,74048.10
2018-06-01T21:54:53.786Z,74077.45
2018-06-01T21:57:23.376Z,74092.63
2018-06-01T21:59:52.842Z,74100.72
2018-06-01T22:02:22.330Z,74084.53
2018-06-01T22:04:52.003Z,74092.63
2018-06-01T22:07:21.395Z,74099.70
2018-06-01T22:09:52.261Z,74111.84
2018-06-01T22:12:21.902Z,74172.55
2018-06-01T22:14:51.649Z,74122.98
2018-06-01T22:17:21.547Z,74109.83
2018-06-01T22:19:50.998Z,74106.78
2018-06-01T22:22:20.568Z,74101.73
2018-06-01T22:24:50.684Z,74105.77
2018-06-01T22:27:20.009Z,74161.42
2018-06-01T22:29:49.962Z,74225.16
2018-06-01T22:32:19.702Z,74194.81
2018-06-01T22:34:49.045Z,74262.60
2018-06-01T22:37:18.615Z,74278.80
2018-06-01T22:39:48.336Z,74190.77
2018-06-01T22:42:18.131Z,74185.70
2018-06-01T22:44:47.666Z,74181.66
2018-06-01T22:47:17.337Z,74179.64
2018-06-01T22:49:47.133Z,74136.13
2018-06-01T22:52:17.096Z,74142.20
2018-06-01T22:54:46.793Z,74148.27
2018-06-01T22:57:16.218Z,74155.35
2018-06-01T22:59:45.654Z,74175.59
2018-06-01T23:02:15.783Z,74169.52
2018-06-01T23:04:45.727Z,74224.16
2018-06-01T23:07:15.547Z,74165.47
2018-06-01T23:09:45.032Z,74146.25
2018-06-01T23:12:14.502Z,74154.34
2018-06-01T23:14:44.082Z,74191.78
2018-06-01T23:17:13.749Z,74200.88
2018-06-01T23:19:43.245Z,74200.88
2018-06-01T23:22:13.118Z,74191.78
2018-06-01T23:24:42.881Z,74224.16
2018-06-01T23:27:12.687Z,74217.08
2018-06-01T23:29:42.008Z,74230.23
2018-06-01T23:32:11.688Z,74236.30
2018-06-01T23:34:41.289Z,74225.16
2018-06-01T23:37:11.125Z,74204.93
2018-06-01T23:39:40.482Z,74230.23
2018-06-01T23:42:10.273Z,74234.27
2018-06-01T23:44:39.641Z,74219.09
2018-06-01T23:47:08.979Z,74214.03
2018-06-01T23:49:38.580Z,74218.09
2018-06-01T23:52:08.221Z,74275.76
2018-06-01T23:54:37.912Z,74323.31
2018-06-01T23:57:07.515Z,74322.30
2018-06-01T23:59:37.077Z,74320.28
